createdAt,value
2023-01-12T00:04:47.564Z,100637.81
2023-01-12T00:15:00.967Z,100640.78
2023-01-12T00:25:02.695Z,100635.47
2023-01-12T00:35:04.669Z,100641.75
2023-01-12T00:45:24.843Z,100637.44
2023-01-12T00:55:27.885Z,100647.19
2023-01-12T01:05:30.713Z,100664.28
2023-01-12T01:15:32.621Z,100662.41
2023-01-12T01:25:34.416Z,100679.59
2023-01-12T01:35:38.174Z,100685.13
2023-01-12T01:45:40.202Z,100689.00
2023-01-12T01:55:57.379Z,100686.34
2023-01-12T02:05:59.490Z,100682.69
2023-01-12T02:16:29.393Z,100684.59
2023-01-12T02:26:52.037Z,100694.50
2023-01-12T02:37:16.922Z,100682.28
2023-01-12T02:47:27.928Z,100675.94
2023-01-12T02:57:31.668Z,100674.97
2023-01-12T03:07:38.448Z,100662.88
2023-01-12T03:17:45.899Z,100652.00
2023-01-12T03:27:52.937Z,100649.53
2023-01-12T03:38:00.283Z,100654.75
2023-01-12T03:48:25.015Z,100652.63
2023-01-12T03:58:27.269Z,100653.56
2023-01-12T04:08:29.095Z,100646.47
2023-01-12T04:18:32.973Z,100649.88
2023-01-12T04:28:35.099Z,100653.38
2023-01-12T04:38:40.211Z,100657.94
2023-01-12T04:48:46.336Z,100650.44
2023-01-12T04:58:56.433Z,100660.59
2023-01-12T05:09:19.100Z,100657.50
2023-01-12T05:19:23.518Z,100670.06
2023-01-12T05:29:32.375Z,100667.22
2023-01-12T05:39:42.161Z,100678.28
2023-01-12T05:49:44.913Z,100674.84
2023-01-12T05:59:54.290Z,100678.38
2023-01-12T06:09:55.981Z,100678.22
2023-01-12T06:19:57.708Z,100684.22
2023-01-12T06:30:00.540Z,100697.22
2023-01-12T06:40:10.920Z,100716.72
2023-01-12T06:50:13.623Z,100729.72
2023-01-12T07:00:15.541Z,100741.19
2023-01-12T07:10:17.698Z,100739.25
2023-01-12T07:20:20.413Z,100752.91
2023-01-12T07:30:22.603Z,100750.28
2023-01-12T07:40:24.482Z,100753.69
2023-01-12T07:50:28.999Z,100763.97
2023-01-12T08:00:31.505Z,100764.59
2023-01-12T08:10:33.201Z,100773.16
2023-01-12T08:20:37.104Z,100781.28
2023-01-12T08:30:39.072Z,100775.47
2023-01-12T08:41:07.454Z,100772.50
2023-01-12T08:51:11.224Z,100774.06
2023-01-12T09:01:14.783Z,100776.25
2023-01-12T09:11:18.518Z,100787.69
2023-01-12T09:21:24.295Z,100785.22
2023-01-12T09:31:28.864Z,100780.22
2023-01-12T09:42:02.825Z,100786.34
2023-01-12T09:52:17.736Z,100779.03
2023-01-12T10:02:21.540Z,100760.03
2023-01-12T10:12:36.406Z,100766.56
2023-01-12T10:22:55.218Z,100754.72
2023-01-12T10:33:17.004Z,100765.47
2023-01-12T10:43:20.651Z,100742.69
2023-01-12T10:53:27.860Z,100737.03
2023-01-12T11:03:38.350Z,100733.16
2023-01-12T11:13:40.189Z,100726.50
2023-01-12T11:24:00.597Z,100714.06
2023-01-12T11:34:12.213Z,100708.88
2023-01-12T11:44:24.746Z,100710.13
2023-01-12T11:54:30.096Z,100703.63
2023-01-12T12:05:03.446Z,100692.72
2023-01-12T12:15:38.429Z,100693.94
2023-01-12T12:25:45.560Z,100683.19
2023-01-12T12:35:50.173Z,100672.19
2023-01-12T12:46:16.239Z,100673.09
2023-01-12T12:56:21.116Z,100675.50
2023-01-12T13:06:26.636Z,100672.97
2023-01-12T13:16:30.110Z,100668.78
2023-01-12T13:26:52.930Z,100661.81
2023-01-12T13:37:18.339Z,100670.94
2023-01-12T13:47:33.052Z,100676.56
2023-01-12T13:57:38.866Z,100673.59
2023-01-12T14:08:50.777Z,100686.81
2023-01-12T14:18:53.882Z,100672.97
2023-01-12T14:28:57.230Z,100667.03
2023-01-12T14:39:00.516Z,100656.53
2023-01-12T14:49:20.447Z,100650.25
2023-01-12T14:59:31.141Z,100636.66
2023-01-12T15:09:37.775Z,100643.75
2023-01-12T15:20:00.215Z,100644.97
2023-01-12T15:30:17.569Z,100651.09
2023-01-12T15:40:19.575Z,100641.31
2023-01-12T15:50:22.300Z,100667.03
2023-01-12T16:00:27.749Z,100665.09
2023-01-12T16:10:34.600Z,100656.84
2023-01-12T16:20:37.947Z,100665.22
2023-01-12T16:30:45.422Z,100668.69
2023-01-12T16:40:47.684Z,100666.59
2023-01-12T16:50:55.358Z,100668.97
2023-01-12T17:00:59.316Z,100680.13
2023-01-12T17:11:13.743Z,100678.19
2023-01-12T17:21:15.720Z,100671.25
2023-01-12T17:31:20.671Z,100667.25
2023-01-12T17:41:43.769Z,100671.88
2023-01-12T17:51:45.489Z,100672.72
2023-01-12T18:01:48.415Z,100667.97
2023-01-12T18:11:50.133Z,100673.34
2023-01-12T18:21:52.475Z,100675.16
2023-01-12T18:31:59.595Z,100680.41
2023-01-12T18:42:23.992Z,100670.63
2023-01-12T18:52:45.124Z,100678.72
2023-01-12T19:02:48.385Z,100666.72
2023-01-12T19:13:13.445Z,100674.03
2023-01-12T19:23:36.287Z,100669.94
2023-01-12T19:33:39.369Z,100654.06
2023-01-12T19:43:46.518Z,100642.97
2023-01-12T19:53:48.585Z,100617.56
2023-01-12T20:03:51.857Z,100613.06
2023-01-12T20:13:56.103Z,100623.41
2023-01-12T20:23:57.916Z,100634.13
2023-01-12T20:34:05.725Z,100640.97
2023-01-12T20:44:13.386Z,100652.53
2023-01-12T20:54:15.575Z,100647.22
2023-01-12T21:04:23.960Z,100651.88
2023-01-12T21:14:26.366Z,100651.69
2023-01-12T21:24:28.797Z,100658.63
2023-01-12T21:34:34.316Z,100655.50
2023-01-12T21:44:44.212Z,100645.31
2023-01-12T21:54:47.117Z,100646.94
2023-01-12T22:04:48.928Z,100632.94
2023-01-12T22:14:51.726Z,100628.59
2023-01-12T22:24:53.570Z,100627.31
2023-01-12T22:34:58.862Z,100622.94
2023-01-12T22:45:00.623Z,100605.84
2023-01-12T22:55:04.895Z,100606.03
2023-01-12T23:05:14.737Z,100605.03
2023-01-12T23:15:16.843Z,100601.69
2023-01-12T23:25:19.249Z,100610.56
2023-01-12T23:35:26.612Z,100617.56
2023-01-12T23:45:36.903Z,100612.56
2023-01-12T23:55:39.637Z,100611.50
